createdAt,value
2023-04-19T00:01:43.555Z,8.38
2023-04-19T00:04:11.877Z,8.75
2023-04-19T00:06:42.033Z,9.13
2023-04-19T00:09:09.897Z,9.13
2023-04-19T00:11:37.671Z,11.35
2023-04-19T00:14:05.496Z,8.32
2023-04-19T00:16:34.607Z,11.98
2023-04-19T00:19:02.502Z,10.90
2023-04-19T00:21:31.288Z,9.40
2023-04-19T00:23:58.964Z,8.40
2023-04-19T00:26:26.791Z,9.20
2023-04-19T00:28:54.751Z,9.15
2023-04-19T00:31:22.620Z,10.50
2023-04-19T00:33:51.704Z,9.07
2023-04-19T00:36:19.418Z,7.03
2023-04-19T00:38:47.345Z,7.20
2023-04-19T00:41:15.195Z,9.02
2023-04-19T00:43:42.925Z,7.03
2023-04-19T00:46:11.152Z,9.43
2023-04-19T00:48:39.053Z,8.65
2023-04-19T00:51:10.396Z,9.63
2023-04-19T00:53:38.993Z,8.48
2023-04-19T00:56:07.534Z,8.73
2023-04-19T00:58:35.225Z,8.50
2023-04-19T01:01:02.929Z,8.30
2023-04-19T01:03:30.998Z,8.45
2023-04-19T01:05:59.204Z,7.60
2023-04-19T01:08:28.465Z,8.90
2023-04-19T01:10:56.227Z,7.47
2023-04-19T01:13:24.195Z,7.40
2023-04-19T01:15:52.495Z,11.70
2023-04-19T01:18:20.362Z,9.77
2023-04-19T01:20:48.051Z,8.68
2023-04-19T01:23:17.276Z,8.55
2023-04-19T01:25:45.012Z,11.25
2023-04-19T01:28:12.765Z,9.63
2023-04-19T01:30:40.598Z,9.18
2023-04-19T01:33:08.397Z,9.18
2023-04-19T01:35:36.310Z,6.55
2023-04-19T01:38:05.358Z,9.15
2023-04-19T01:40:34.554Z,6.57
2023-04-19T01:43:02.343Z,7.35
2023-04-19T01:45:30.270Z,6.43
2023-04-19T01:47:59.063Z,6.13
2023-04-19T01:50:27.051Z,6.65
2023-04-19T01:52:54.871Z,6.97
2023-04-19T01:55:22.654Z,6.32
2023-04-19T01:57:54.449Z,7.80
2023-04-19T02:00:22.927Z,8.00
2023-04-19T02:02:50.763Z,9.27
2023-04-19T02:05:18.749Z,9.30
2023-04-19T02:07:46.428Z,8.75
2023-04-19T02:10:14.186Z,8.80
2023-04-19T02:12:42.733Z,6.88
2023-04-19T02:15:12.315Z,7.35
2023-04-19T02:17:40.516Z,8.43
2023-04-19T02:20:09.448Z,6.05
2023-04-19T02:22:37.160Z,7.07
2023-04-19T02:25:05.377Z,8.40
2023-04-19T02:27:33.158Z,6.93
2023-04-19T02:30:00.976Z,8.15
2023-04-19T02:32:30.307Z,7.72
2023-04-19T02:34:58.002Z,6.55
2023-04-19T02:37:25.894Z,5.80
2023-04-19T02:39:53.592Z,9.07
2023-04-19T02:42:21.409Z,10.27
2023-04-19T02:44:49.137Z,7.57
2023-04-19T02:47:16.843Z,8.77
2023-04-19T02:49:45.898Z,9.60
2023-04-19T02:52:13.593Z,7.07
2023-04-19T02:54:41.275Z,8.02
2023-04-19T02:57:09.024Z,7.32
2023-04-19T02:59:36.809Z,6.38
2023-04-19T03:02:04.854Z,6.45
2023-04-19T03:04:32.623Z,8.07
2023-04-19T03:07:01.790Z,8.00
2023-04-19T03:09:29.682Z,8.93
2023-04-19T03:11:57.405Z,7.60
2023-04-19T03:14:25.350Z,9.75
2023-04-19T03:16:53.111Z,8.57
2023-04-19T03:19:20.880Z,7.10
2023-04-19T03:21:48.677Z,8.73
2023-04-19T03:24:19.516Z,8.80
2023-04-19T03:26:47.245Z,7.93
2023-04-19T03:29:15.200Z,9.70
2023-04-19T03:31:43.245Z,9.07
2023-04-19T03:34:11.087Z,9.18
2023-04-19T03:36:39.343Z,8.80
2023-04-19T03:39:07.513Z,8.10
2023-04-19T03:41:36.622Z,8.48
2023-04-19T03:44:04.533Z,8.32
2023-04-19T03:46:32.491Z,9.95
2023-04-19T03:49:00.403Z,7.50
2023-04-19T03:51:28.149Z,9.38
2023-04-19T03:53:55.856Z,9.25
2023-04-19T03:56:24.002Z,8.27
2023-04-19T03:58:53.593Z,9.40
2023-04-19T04:01:21.626Z,8.55
2023-04-19T04:03:49.710Z,7.63
2023-04-19T04:06:17.852Z,10.57
2023-04-19T04:08:46.121Z,8.10
2023-04-19T04:11:13.921Z,7.90
2023-04-19T04:13:41.718Z,9.02
2023-04-19T04:16:11.012Z,10.13
2023-04-19T04:18:38.864Z,7.60
2023-04-19T04:21:07.429Z,9.52
2023-04-19T04:23:35.265Z,9.25
2023-04-19T04:26:04.841Z,9.43
2023-04-19T04:28:33.386Z,9.30
2023-04-19T04:31:01.108Z,9.68
2023-04-19T04:33:30.389Z,8.70
2023-04-19T04:35:59.077Z,7.25
2023-04-19T04:38:27.349Z,8.20
2023-04-19T04:40:56.928Z,9.95
2023-04-19T04:43:29.086Z,9.70
2023-04-19T04:45:57.856Z,9.65
2023-04-19T04:48:25.881Z,9.73
2023-04-19T04:50:54.962Z,9.23
2023-04-19T04:53:23.212Z,7.72
2023-04-19T04:55:51.453Z,11.02
2023-04-19T04:58:20.448Z,8.38
2023-04-19T05:00:49.058Z,8.88
2023-04-19T05:03:16.942Z,8.45
2023-04-19T05:05:45.363Z,8.43
2023-04-19T05:08:14.551Z,8.63
2023-04-19T05:10:42.451Z,9.52
2023-04-19T05:13:10.430Z,9.65
2023-04-19T05:15:38.129Z,9.45
2023-04-19T05:18:06.755Z,7.80
2023-04-19T05:20:34.851Z,8.90
2023-04-19T05:23:03.443Z,9.35
2023-04-19T05:25:32.560Z,9.57
2023-04-19T05:28:00.412Z,11.13
2023-04-19T05:30:28.155Z,8.77
2023-04-19T05:32:56.547Z,9.18
2023-04-19T05:35:24.356Z,11.70
2023-04-19T05:37:52.501Z,8.57
2023-04-19T05:40:20.417Z,9.48
2023-04-19T05:42:49.549Z,9.23
2023-04-19T05:45:18.436Z,8.80
2023-04-19T05:47:46.229Z,9.82
2023-04-19T05:50:14.974Z,9.63
2023-04-19T05:52:42.737Z,10.57
2023-04-19T05:55:10.891Z,8.93
2023-04-19T05:57:38.621Z,11.23
2023-04-19T06:00:09.787Z,11.07
2023-04-19T06:02:38.019Z,7.70
2023-04-19T06:05:10.401Z,10.60
2023-04-19T06:07:43.186Z,11.20
2023-04-19T06:10:15.261Z,13.68
2023-04-19T06:12:43.036Z,12.63
2023-04-19T06:15:12.862Z,11.32
2023-04-19T06:17:41.111Z,10.82
2023-04-19T06:20:10.534Z,8.48
2023-04-19T06:22:43.314Z,9.40
2023-04-19T06:25:11.258Z,12.23
2023-04-19T06:27:39.030Z,7.93
2023-04-19T06:30:08.180Z,10.00
2023-04-19T06:32:37.378Z,12.02
2023-04-19T06:35:06.966Z,9.90
2023-04-19T06:37:34.860Z,9.73
2023-04-19T06:40:02.731Z,11.32
2023-04-19T06:42:30.483Z,9.65
2023-04-19T06:44:58.197Z,7.93
2023-04-19T06:47:26.048Z,8.48
2023-04-19T06:49:55.251Z,7.95
2023-04-19T06:52:23.081Z,10.65
2023-04-19T06:54:51.622Z,7.97
2023-04-19T06:57:19.582Z,8.65
2023-04-19T06:59:47.367Z,8.57
2023-04-19T07:02:15.286Z,8.05
2023-04-19T07:04:43.409Z,7.07
2023-04-19T07:07:13.640Z,6.63
2023-04-19T07:09:41.430Z,6.95
2023-04-19T07:12:09.313Z,6.18
2023-04-19T07:14:37.150Z,8.18
2023-04-19T07:17:05.705Z,17.52
2023-04-19T07:19:35.527Z,8.55
2023-04-19T07:22:04.087Z,7.70
2023-04-19T07:24:33.321Z,7.90
2023-04-19T07:27:01.718Z,9.15
2023-04-19T07:29:29.707Z,8.05
2023-04-19T07:31:59.590Z,8.95
2023-04-19T07:34:27.407Z,8.80
2023-04-19T07:36:55.156Z,7.55
2023-04-19T07:39:22.874Z,9.85
2023-04-19T07:41:52.037Z,8.38
2023-04-19T07:44:20.015Z,11.57
2023-04-19T07:46:48.059Z,9.95
2023-04-19T07:49:17.263Z,8.52
2023-04-19T07:51:45.031Z,7.82
2023-04-19T07:54:12.866Z,8.63
2023-04-19T07:56:40.652Z,9.73
2023-04-19T07:59:09.764Z,8.27
2023-04-19T08:01:39.514Z,9.80
2023-04-19T08:04:09.775Z,6.65
2023-04-19T08:06:41.183Z,7.55
2023-04-19T08:09:11.075Z,7.45
2023-04-19T08:11:41.064Z,13.60
2023-04-19T08:14:26.156Z,7.10
2023-04-19T08:19:33.420Z,6.28
2023-04-19T08:22:05.124Z,7.05
2023-04-19T08:24:34.872Z,6.28
2023-04-19T08:27:04.758Z,6.40
2023-04-19T08:29:36.031Z,7.13
2023-04-19T08:32:05.977Z,7.47
2023-04-19T08:34:37.939Z,8.50
2023-04-19T08:37:08.771Z,12.65
2023-04-19T08:39:38.344Z,5.60
2023-04-19T08:42:18.359Z,12.35
2023-04-19T08:45:25.989Z,8.25
2023-04-19T08:48:00.556Z,7.93
2023-04-19T08:50:38.932Z,6.43
2023-04-19T08:53:24.747Z,8.88
2023-04-19T08:58:41.326Z,9.63
2023-04-19T09:01:26.735Z,6.00
2023-04-19T09:04:10.283Z,6.93
2023-04-19T09:06:44.663Z,8.88
2023-04-19T09:09:33.359Z,6.45
2023-04-19T09:12:03.108Z,8.43
2023-04-19T09:14:31.154Z,6.93
2023-04-19T09:17:18.618Z,7.45
2023-04-19T09:19:47.591Z,8.80
2023-04-19T09:22:15.634Z,6.72
2023-04-19T09:27:16.676Z,9.52
2023-04-19T09:29:54.413Z,8.15
2023-04-19T09:32:23.857Z,10.52
2023-04-19T09:34:56.041Z,8.05
2023-04-19T09:39:56.442Z,10.50
2023-04-19T09:42:47.441Z,7.65
2023-04-19T09:45:29.128Z,9.00
2023-04-19T09:48:07.502Z,8.50
2023-04-19T09:50:50.505Z,11.05
2023-04-19T09:53:24.439Z,8.55
2023-04-19T09:56:00.664Z,9.52
2023-04-19T10:01:13.444Z,11.30
2023-04-19T10:03:45.639Z,9.80
2023-04-19T10:06:40.130Z,8.18
2023-04-19T10:09:05.394Z,8.65
2023-04-19T10:11:38.430Z,9.82
2023-04-19T10:14:07.642Z,10.30
2023-04-19T10:16:36.277Z,8.10
2023-04-19T10:19:10.201Z,8.77
2023-04-19T10:21:39.400Z,11.50
2023-04-19T10:24:08.273Z,11.95
2023-04-19T10:27:11.160Z,11.13
2023-04-19T10:29:57.282Z,9.43
2023-04-19T10:32:26.192Z,10.10
2023-04-19T10:34:55.636Z,7.97
2023-04-19T10:37:26.011Z,13.48
2023-04-19T10:39:53.888Z,11.70
2023-04-19T10:42:21.811Z,10.40
2023-04-19T10:45:31.597Z,8.57
2023-04-19T10:47:59.372Z,11.63
2023-04-19T10:50:28.652Z,11.43
2023-04-19T10:52:56.648Z,9.27
2023-04-19T10:55:24.476Z,9.38
2023-04-19T10:58:06.383Z,8.65
2023-04-19T11:00:35.969Z,9.38
2023-04-19T11:03:48.245Z,10.32
2023-04-19T11:06:19.120Z,14.93
2023-04-19T11:08:47.179Z,11.07
2023-04-19T11:11:15.545Z,10.60
2023-04-19T11:13:43.761Z,10.40
2023-04-19T11:16:11.927Z,9.65
2023-04-19T11:18:39.748Z,11.75
2023-04-19T11:21:07.465Z,10.20
2023-04-19T11:23:36.562Z,9.75
2023-04-19T11:26:04.387Z,9.90
2023-04-19T11:28:34.397Z,10.02
2023-04-19T11:31:04.419Z,9.32
2023-04-19T11:33:34.514Z,7.63
2023-04-19T11:36:02.430Z,6.07
2023-04-19T11:38:30.154Z,9.82
2023-04-19T11:41:02.921Z,7.15
2023-04-19T11:43:34.449Z,7.38
2023-04-19T11:46:07.182Z,7.25
2023-04-19T11:48:35.154Z,7.00
2023-04-19T11:51:03.942Z,7.88
2023-04-19T11:53:33.474Z,6.47
2023-04-19T11:56:07.697Z,8.55
2023-04-19T11:58:39.828Z,7.75
2023-04-19T12:01:09.884Z,5.60
2023-04-19T12:03:43.162Z,14.40
2023-04-19T12:06:13.899Z,7.20
2023-04-19T12:08:44.916Z,7.20
2023-04-19T12:11:16.641Z,5.72
2023-04-19T12:13:44.621Z,5.43
2023-04-19T12:16:13.225Z,6.30
2023-04-19T12:18:45.989Z,8.55
2023-04-19T12:21:25.725Z,6.38
2023-04-19T12:23:55.732Z,4.55
2023-04-19T12:26:25.642Z,6.63
2023-04-19T12:28:54.505Z,5.55
2023-04-19T12:31:22.445Z,4.88
2023-04-19T12:33:50.543Z,7.10
2023-04-19T12:36:18.406Z,4.13
2023-04-19T12:38:46.345Z,10.00
2023-04-19T12:41:14.090Z,4.72
2023-04-19T12:43:43.179Z,5.00
2023-04-19T12:46:10.977Z,4.20
2023-04-19T12:48:38.702Z,4.72
2023-04-19T12:51:06.673Z,3.63
2023-04-19T12:53:34.434Z,3.72
2023-04-19T12:56:02.229Z,3.67
2023-04-19T12:58:29.982Z,3.63
2023-04-19T13:00:59.096Z,4.07
2023-04-19T13:03:27.046Z,3.30
2023-04-19T13:05:54.972Z,3.33
2023-04-19T13:08:33.822Z,6.30
2023-04-19T13:11:09.173Z,5.57
2023-04-19T13:13:36.895Z,4.07
2023-04-19T13:16:07.822Z,5.45
2023-04-19T13:18:35.750Z,4.70
2023-04-19T13:21:03.994Z,11.68
2023-04-19T13:23:32.750Z,6.90
2023-04-19T13:26:00.551Z,4.30
2023-04-19T13:28:28.368Z,5.80
2023-04-19T13:30:56.209Z,5.53
2023-04-19T13:33:26.780Z,5.88
2023-04-19T13:35:54.538Z,5.47
2023-04-19T13:38:22.387Z,4.95
2023-04-19T13:40:50.700Z,6.47
2023-04-19T13:43:18.469Z,3.88
2023-04-19T13:45:46.333Z,3.28
2023-04-19T13:48:14.072Z,6.97
2023-04-19T13:50:43.285Z,4.93
2023-04-19T13:53:11.182Z,7.45
2023-04-19T13:55:39.033Z,8.13
2023-04-19T13:58:06.845Z,8.88
2023-04-19T14:00:34.794Z,3.38
2023-04-19T14:03:02.696Z,5.30
2023-04-19T14:05:31.121Z,4.43
2023-04-19T14:08:00.397Z,4.93
2023-04-19T14:10:28.323Z,5.32
2023-04-19T14:12:56.212Z,5.03
2023-04-19T14:15:25.446Z,3.45
2023-04-19T14:17:53.382Z,3.28
2023-04-19T14:20:21.390Z,3.38
2023-04-19T14:22:49.094Z,6.22
2023-04-19T14:25:18.848Z,4.13
2023-04-19T14:27:46.564Z,3.13
2023-04-19T14:30:14.817Z,2.67
2023-04-19T14:32:42.844Z,4.32
2023-04-19T14:35:11.973Z,2.70
2023-04-19T14:37:39.949Z,3.30
2023-04-19T14:40:09.134Z,2.88
2023-04-19T14:42:38.320Z,3.95
2023-04-19T14:45:07.184Z,3.03
2023-04-19T14:47:35.476Z,6.18
2023-04-19T14:50:03.778Z,2.78
2023-04-19T14:52:31.558Z,4.22
2023-04-19T14:54:59.656Z,4.13
2023-04-19T14:57:28.434Z,2.30
2023-04-19T14:59:58.338Z,5.45
2023-04-19T15:02:26.625Z,2.63
2023-04-19T15:04:54.964Z,2.97
2023-04-19T15:07:23.093Z,2.28
2023-04-19T15:09:50.834Z,2.72
2023-04-19T15:12:18.605Z,2.80
2023-04-19T15:14:46.329Z,1.95
2023-04-19T15:17:16.657Z,1.52
2023-04-19T15:19:46.756Z,3.80
2023-04-19T15:22:14.461Z,3.20
2023-04-19T15:24:42.177Z,3.08
2023-04-19T15:27:10.032Z,1.30
2023-04-19T15:29:39.327Z,1.70
2023-04-19T15:32:07.187Z,2.88
2023-04-19T15:34:36.322Z,2.25
2023-04-19T15:37:05.861Z,3.33
2023-04-19T15:39:33.639Z,1.58
2023-04-19T15:42:01.895Z,1.55
2023-04-19T15:44:29.828Z,3.55
2023-04-19T15:46:57.700Z,2.13
2023-04-19T15:49:25.606Z,2.97
2023-04-19T15:51:54.696Z,4.00
2023-04-19T15:54:23.048Z,2.05
2023-04-19T15:56:50.879Z,2.08
2023-04-19T15:59:18.865Z,2.08
2023-04-19T16:01:46.809Z,1.30
2023-04-19T16:04:15.172Z,1.83
2023-04-19T16:06:43.177Z,3.53
2023-04-19T16:09:12.397Z,1.35
2023-04-19T16:11:40.259Z,1.08
2023-04-19T16:14:08.003Z,1.20
2023-04-19T16:16:35.866Z,1.60
2023-04-19T16:19:03.711Z,0.93
2023-04-19T16:21:31.429Z,1.45
2023-04-19T16:24:00.667Z,2.30
2023-04-19T16:26:30.044Z,1.98
2023-04-19T16:28:59.220Z,1.05
2023-04-19T16:31:27.124Z,2.10
2023-04-19T16:33:54.918Z,2.13
2023-04-19T16:36:23.494Z,1.88
2023-04-19T16:38:51.227Z,0.82
2023-04-19T16:41:19.023Z,1.50
2023-04-19T16:43:48.336Z,3.95
2023-04-19T16:46:16.469Z,3.20
2023-04-19T16:48:44.247Z,3.42
2023-04-19T16:51:11.971Z,1.35
2023-04-19T16:53:39.755Z,4.10
2023-04-19T16:56:07.830Z,3.38
2023-04-19T16:58:35.629Z,3.47
2023-04-19T17:01:05.998Z,1.80
2023-04-19T17:03:34.854Z,1.73
2023-04-19T17:06:02.774Z,0.95
2023-04-19T17:08:30.734Z,1.30
2023-04-19T17:10:58.679Z,1.30
2023-04-19T17:13:26.828Z,4.97
2023-04-19T17:15:54.783Z,3.15
2023-04-19T17:18:23.987Z,5.43
2023-04-19T17:20:51.939Z,3.58
2023-04-19T17:23:19.697Z,2.78
2023-04-19T17:25:47.420Z,2.22
2023-04-19T17:28:15.265Z,2.22
2023-04-19T17:30:43.121Z,3.00
2023-04-19T17:33:10.918Z,3.42
2023-04-19T17:35:40.539Z,1.63
2023-04-19T17:38:08.390Z,1.08
2023-04-19T17:40:36.225Z,2.53
2023-04-19T17:43:03.939Z,2.45
2023-04-19T17:45:31.720Z,1.48
2023-04-19T17:47:59.521Z,4.07
2023-04-19T17:50:27.532Z,2.45
2023-04-19T17:52:56.998Z,3.58
2023-04-19T17:55:25.333Z,4.82
2023-04-19T17:57:53.144Z,1.85
2023-04-19T18:00:21.429Z,2.25
2023-04-19T18:02:49.358Z,1.73
2023-04-19T18:05:18.274Z,5.43
2023-04-19T18:07:47.302Z,2.75
2023-04-19T18:10:16.349Z,3.10
2023-04-19T18:12:44.105Z,3.28
2023-04-19T18:15:12.629Z,2.22
2023-04-19T18:17:41.045Z,1.98
2023-04-19T18:20:11.294Z,4.28
2023-04-19T18:22:40.893Z,2.72
2023-04-19T18:25:09.439Z,2.78
2023-04-19T18:27:38.577Z,1.60
2023-04-19T18:30:07.541Z,2.20
2023-04-19T18:32:35.563Z,1.83
2023-04-19T18:35:04.395Z,1.85
2023-04-19T18:37:32.206Z,4.07
2023-04-19T18:39:59.949Z,2.90
2023-04-19T18:42:27.732Z,1.77
2023-04-19T18:44:56.789Z,2.38
2023-04-19T18:47:27.340Z,2.33
2023-04-19T18:50:03.286Z,2.53
2023-04-19T18:52:32.165Z,2.60
2023-04-19T18:55:00.589Z,1.95
2023-04-19T18:57:28.368Z,2.05
2023-04-19T18:59:58.078Z,2.47
2023-04-19T19:02:27.546Z,4.45
2023-04-19T19:05:01.235Z,3.03
2023-04-19T19:07:36.872Z,1.45
2023-04-19T19:12:40.654Z,2.17
2023-04-19T19:15:10.793Z,3.03
2023-04-19T19:17:38.805Z,2.60
2023-04-19T19:20:08.119Z,2.50
2023-04-19T19:22:35.924Z,2.10
2023-04-19T19:25:03.873Z,5.80
2023-04-19T19:27:31.776Z,2.38
2023-04-19T19:29:59.583Z,3.05
2023-04-19T19:32:28.704Z,2.53
2023-04-19T19:35:02.187Z,8.00
2023-04-19T19:37:31.166Z,1.83
2023-04-19T19:40:03.787Z,1.80
2023-04-19T19:42:33.286Z,5.15
2023-04-19T19:45:02.034Z,4.10
2023-04-19T19:47:35.167Z,7.25
2023-04-19T19:50:52.056Z,5.75
2023-04-19T19:52:52.578Z,3.20
2023-04-19T19:55:20.374Z,4.05
2023-04-19T19:58:23.782Z,3.63
2023-04-19T20:00:46.176Z,4.78
2023-04-19T20:03:28.820Z,2.97
2023-04-19T20:06:25.523Z,2.38
2023-04-19T20:08:52.397Z,2.25
2023-04-19T20:11:20.400Z,3.63
2023-04-19T20:13:48.162Z,4.45
2023-04-19T20:16:18.703Z,3.95
2023-04-19T20:18:49.059Z,2.08
2023-04-19T20:21:19.380Z,2.95
2023-04-19T20:23:47.197Z,3.05
2023-04-19T20:26:15.044Z,2.55
2023-04-19T20:28:42.892Z,2.17
2023-04-19T20:31:10.709Z,2.17
2023-04-19T20:33:38.489Z,2.30
2023-04-19T20:36:09.413Z,10.27
2023-04-19T20:38:37.156Z,2.72
2023-04-19T20:41:05.107Z,5.15
2023-04-19T20:43:33.031Z,2.95
2023-04-19T20:46:00.853Z,1.90
2023-04-19T20:48:28.784Z,4.53
2023-04-19T20:50:57.013Z,7.78
2023-04-19T20:53:26.354Z,4.10
2023-04-19T20:55:54.110Z,2.40
2023-04-19T20:58:22.000Z,4.25
2023-04-19T21:00:50.675Z,1.98
2023-04-19T21:03:18.664Z,6.88
2023-04-19T21:05:46.555Z,1.98
2023-04-19T21:08:15.918Z,5.88
2023-04-19T21:10:45.068Z,5.32
2023-04-19T21:13:12.893Z,5.03
2023-04-19T21:15:40.714Z,3.25
2023-04-19T21:18:08.512Z,13.05
2023-04-19T21:20:36.289Z,3.28
2023-04-19T21:23:04.160Z,5.50
2023-04-19T21:25:31.893Z,2.17
2023-04-19T21:28:01.240Z,2.25
2023-04-19T21:30:29.118Z,2.65
2023-04-19T21:32:57.095Z,3.67
2023-04-19T21:35:24.954Z,2.85
2023-04-19T21:37:52.854Z,3.03
2023-04-19T21:40:20.778Z,3.80
2023-04-19T21:42:48.538Z,2.90
2023-04-19T21:45:17.751Z,3.22
2023-04-19T21:47:45.660Z,5.22
2023-04-19T21:50:13.503Z,3.95
2023-04-19T21:52:41.215Z,3.10
2023-04-19T21:55:09.761Z,2.50
2023-04-19T21:57:38.266Z,3.50
2023-04-19T22:00:09.136Z,2.70
2023-04-19T22:02:38.472Z,3.95
2023-04-19T22:05:07.287Z,4.80
2023-04-19T22:07:37.244Z,4.45
2023-04-19T22:10:07.069Z,9.05
2023-04-19T22:12:37.339Z,28.85
2023-04-19T22:15:09.364Z,55.30
2023-04-19T22:17:40.254Z,43.53
2023-04-19T22:20:12.620Z,30.67
2023-04-19T22:22:40.535Z,17.05
2023-04-19T22:25:09.071Z,10.90
2023-04-19T22:27:36.964Z,5.78
2023-04-19T22:30:05.434Z,6.45
2023-04-19T22:32:33.285Z,8.15
2023-04-19T22:35:02.362Z,3.95
2023-04-19T22:37:30.079Z,4.25
2023-04-19T22:39:57.748Z,3.83
2023-04-19T22:42:25.565Z,3.85
2023-04-19T22:44:53.290Z,3.85
2023-04-19T22:47:21.117Z,4.80
2023-04-19T22:49:49.484Z,5.47
2023-04-19T22:52:18.630Z,4.05
2023-04-19T22:54:46.430Z,4.13
2023-04-19T22:57:14.137Z,3.28
2023-04-19T22:59:41.924Z,4.50
2023-04-19T23:02:09.714Z,3.55
2023-04-19T23:04:37.897Z,6.60
2023-04-19T23:07:06.093Z,3.60
2023-04-19T23:09:38.787Z,5.30
2023-04-19T23:12:06.890Z,4.28
2023-04-19T23:14:34.681Z,3.70
2023-04-19T23:17:02.818Z,4.00
2023-04-19T23:19:30.608Z,7.70
2023-04-19T23:21:58.369Z,3.55
2023-04-19T23:24:26.194Z,4.20
2023-04-19T23:26:55.355Z,4.80
2023-04-19T23:29:23.060Z,3.75
2023-04-19T23:31:50.985Z,5.05
2023-04-19T23:34:18.770Z,6.85
2023-04-19T23:36:46.518Z,4.57
2023-04-19T23:39:14.537Z,4.78
2023-04-19T23:41:43.482Z,7.82
2023-04-19T23:44:12.672Z,5.53
2023-04-19T23:46:40.706Z,4.97
2023-04-19T23:49:08.628Z,3.50
2023-04-19T23:51:36.930Z,3.95
2023-04-19T23:54:05.161Z,4.32
2023-04-19T23:56:32.855Z,3.88
2023-04-19T23:59:00.588Z,5.45
